Roenne, Denmark

10:00 AM CEST on August 30, 2015 (GMT +0200)
Ronne | | Change Station
CLOSE
Current Station
Airport
Location: Roenne,
Elevation: 52 ft
Nearby Weather Stations

Elev 52 ft 55.07 °N, 14.75 °E | Updated 10 minutes ago

Mostly Cloudy
Mostly Cloudy
64 °F
Feels Like 64 °F
N
6
Wind Variable Wind from SSE

Today
High -- | Low -- °F
--% Chance of Precip.
Yesterday
High -- | Low -- °F
Precip. -- in
6:02 AM 7:59 PM
Full, 100% visible
Pressure 30.18 in
Visibility 6.2 miles
Clouds Mostly Cloudy 17000 ft
Dew Point 59 °F
Humidity 83%
Rainfall 0.00 in
Snow Depth Not available.
UV 2 out of 12
Pollen Not available.
Air Quality Not available.
Flu Activity Not available.
METAR EKRN 300750Z AUTO 15005KT 9999NDV BKN170/// 18/15 Q1022
Pressure 30.18 in
Visibility 6.2 miles
Clouds Mostly Cloudy 17000 ft
Dew Point 59 °F
Humidity 83%
Rainfall 0.00 in
Snow Depth Not available.
UV 2 out of 12
Pollen Not available.
Air Quality Not available.
Flu Activity Not available.
METAR EKRN 300750Z AUTO 15005KT 9999NDV BKN170/// 18/15 Q1022

10-Day Weather Forecast

×

Almanac

Astronomy

Aug. 30, 2015 Rise Set
Actual Time
Civil Twilight
Nautical Twilight
Astronomical Twilight
Moon
Length of Visible Light
Length of Day
Tomorrow will be .
, % of the Moon is Illuminated

Today's Extremes

Country Highs Country Lows

Community

WunderPhotos

Upload Photos

1,850,906 photos uploaded!

WunderBlogs® & News

Nearby

Air Quality

  Air Quality AQ Index Pollutant
Not available.

Snow Depth

Station Depth Elevation

Earthquake Activity

City Distance Mag. Time & Date
Minimum magnitude displayed is 2.5.

Coastal Water Temperatures

Place Temperature

Stations

Nearby Weather Stations

Station Location Temp. Windchill Dew Point Humidity Wind Precip. Elev Updated Type